sensor_id;sensor_type;location;lat;lon;timestamp;P1;durP1;ratioP1;P2;durP2;ratioP2
70169;SDS011;57543;45.442;9.212;2024-01-07T00:01:46;21.48;;;14.00;;
70169;SDS011;57543;45.442;9.212;2024-01-07T00:04:51;20.63;;;13.02;;
70169;SDS011;57543;45.442;9.212;2024-01-07T00:07:57;23.30;;;14.18;;
70169;SDS011;57543;45.442;9.212;2024-01-07T00:11:01;22.73;;;14.57;;
70169;SDS011;57543;45.442;9.212;2024-01-07T00:14:05;22.27;;;13.90;;
70169;SDS011;57543;45.442;9.212;2024-01-07T00:17:09;23.38;;;14.15;;
70169;SDS011;57543;45.442;9.212;2024-01-07T00:20:13;20.75;;;13.57;;
70169;SDS011;57543;45.442;9.212;2024-01-07T00:23:17;22.33;;;13.82;;
70169;SDS011;57543;45.442;9.212;2024-01-07T00:26:20;20.27;;;13.47;;
70169;SDS011;57543;45.442;9.212;2024-01-07T00:29:24;22.67;;;13.75;;
70169;SDS011;57543;45.442;9.212;2024-01-07T00:32:27;20.85;;;13.48;;
70169;SDS011;57543;45.442;9.212;2024-01-07T00:35:31;20.85;;;13.20;;
70169;SDS011;57543;45.442;9.212;2024-01-07T00:38:34;20.95;;;13.20;;
70169;SDS011;57543;45.442;9.212;2024-01-07T00:41:38;21.80;;;13.80;;
70169;SDS011;57543;45.442;9.212;2024-01-07T00:44:41;20.95;;;13.63;;
70169;SDS011;57543;45.442;9.212;2024-01-07T00:47:44;21.98;;;13.50;;
70169;SDS011;57543;45.442;9.212;2024-01-07T00:50:48;22.30;;;14.40;;
70169;SDS011;57543;45.442;9.212;2024-01-07T00:53:52;21.17;;;13.38;;
70169;SDS011;57543;45.442;9.212;2024-01-07T00:56:55;19.87;;;13.57;;
70169;SDS011;57543;45.442;9.212;2024-01-07T00:59:59;19.80;;;12.88;;
70169;SDS011;57543;45.442;9.212;2024-01-07T01:03:03;21.60;;;14.05;;
70169;SDS011;57543;45.442;9.212;2024-01-07T01:06:07;20.45;;;13.40;;
70169;SDS011;57543;45.442;9.212;2024-01-07T01:09:10;21.02;;;13.48;;
70169;SDS011;57543;45.442;9.212;2024-01-07T01:12:15;21.23;;;13.37;;
70169;SDS011;57543;45.442;9.212;2024-01-07T01:15:18;21.17;;;13.93;;
70169;SDS011;57543;45.442;9.212;2024-01-07T01:18:22;22.42;;;13.65;;
70169;SDS011;57543;45.442;9.212;2024-01-07T01:21:28;22.80;;;14.25;;
70169;SDS011;57543;45.442;9.212;2024-01-07T01:24:31;21.98;;;14.30;;
70169;SDS011;57543;45.442;9.212;2024-01-07T01:27:34;20.73;;;13.43;;
70169;SDS011;57543;45.442;9.212;2024-01-07T01:30:38;22.20;;;13.77;;
70169;SDS011;57543;45.442;9.212;2024-01-07T01:33:43;22.58;;;14.52;;
70169;SDS011;57543;45.442;9.212;2024-01-07T01:36:47;22.88;;;14.45;;
70169;SDS011;57543;45.442;9.212;2024-01-07T01:39:50;25.33;;;15.52;;
70169;SDS011;57543;45.442;9.212;2024-01-07T01:42:54;25.73;;;15.67;;
70169;SDS011;57543;45.442;9.212;2024-01-07T01:45:58;24.70;;;14.65;;
70169;SDS011;57543;45.442;9.212;2024-01-07T01:49:01;22.95;;;14.98;;
70169;SDS011;57543;45.442;9.212;2024-01-07T01:52:05;22.45;;;13.95;;
70169;SDS011;57543;45.442;9.212;2024-01-07T01:55:08;21.85;;;14.45;;
70169;SDS011;57543;45.442;9.212;2024-01-07T01:58:13;23.63;;;15.17;;
70169;SDS011;57543;45.442;9.212;2024-01-07T02:01:17;25.95;;;15.75;;
70169;SDS011;57543;45.442;9.212;2024-01-07T02:04:21;24.02;;;14.60;;
70169;SDS011;57543;45.442;9.212;2024-01-07T02:07:24;22.52;;;14.25;;
70169;SDS011;57543;45.442;9.212;2024-01-07T02:10:28;24.05;;;15.40;;
70169;SDS011;57543;45.442;9.212;2024-01-07T02:13:37;23.27;;;13.93;;
70169;SDS011;57543;45.442;9.212;2024-01-07T02:16:41;23.17;;;14.30;;
70169;SDS011;57543;45.442;9.212;2024-01-07T02:19:45;23.02;;;14.93;;
70169;SDS011;57543;45.442;9.212;2024-01-07T02:22:48;21.98;;;13.63;;
70169;SDS011;57543;45.442;9.212;2024-01-07T02:25:52;21.35;;;14.45;;
70169;SDS011;57543;45.442;9.212;2024-01-07T02:28:56;22.30;;;13.83;;
70169;SDS011;57543;45.442;9.212;2024-01-07T02:32:00;23.67;;;14.15;;
70169;SDS011;57543;45.442;9.212;2024-01-07T02:35:04;21.55;;;14.10;;
70169;SDS011;57543;45.442;9.212;2024-01-07T02:38:07;22.73;;;14.65;;
70169;SDS011;57543;45.442;9.212;2024-01-07T02:41:11;23.77;;;15.18;;
70169;SDS011;57543;45.442;9.212;2024-01-07T02:44:15;23.93;;;14.63;;
70169;SDS011;57543;45.442;9.212;2024-01-07T02:47:19;22.05;;;14.20;;
70169;SDS011;57543;45.442;9.212;2024-01-07T02:50:22;23.13;;;14.60;;
70169;SDS011;57543;45.442;9.212;2024-01-07T02:53:26;21.67;;;14.05;;
70169;SDS011;57543;45.442;9.212;2024-01-07T02:56:30;21.45;;;13.75;;
70169;SDS011;57543;45.442;9.212;2024-01-07T02:59:33;22.10;;;13.97;;
70169;SDS011;57543;45.442;9.212;2024-01-07T03:02:38;22.55;;;14.77;;
70169;SDS011;57543;45.442;9.212;2024-01-07T03:05:41;24.90;;;15.80;;
70169;SDS011;57543;45.442;9.212;2024-01-07T03:08:45;22.23;;;14.95;;
70169;SDS011;57543;45.442;9.212;2024-01-07T03:11:51;21.85;;;14.57;;
70169;SDS011;57543;45.442;9.212;2024-01-07T03:14:54;23.10;;;14.30;;
70169;SDS011;57543;45.442;9.212;2024-01-07T03:17:58;21.75;;;14.73;;
70169;SDS011;57543;45.442;9.212;2024-01-07T03:21:01;23.27;;;15.45;;
70169;SDS011;57543;45.442;9.212;2024-01-07T03:24:05;23.48;;;14.75;;
70169;SDS011;57543;45.442;9.212;2024-01-07T03:27:09;22.98;;;14.90;;
70169;SDS011;57543;45.442;9.212;2024-01-07T03:30:13;22.47;;;14.63;;
70169;SDS011;57543;45.442;9.212;2024-01-07T03:33:17;21.92;;;13.75;;
70169;SDS011;57543;45.442;9.212;2024-01-07T03:36:21;24.02;;;15.50;;
70169;SDS011;57543;45.442;9.212;2024-01-07T03:39:24;23.42;;;15.02;;
70169;SDS011;57543;45.442;9.212;2024-01-07T03:42:28;24.55;;;14.85;;
70169;SDS011;57543;45.442;9.212;2024-01-07T03:45:32;21.97;;;14.57;;
70169;SDS011;57543;45.442;9.212;2024-01-07T03:48:36;23.73;;;14.65;;
70169;SDS011;57543;45.442;9.212;2024-01-07T03:51:39;21.08;;;14.75;;
70169;SDS011;57543;45.442;9.212;2024-01-07T03:54:42;22.48;;;14.68;;
70169;SDS011;57543;45.442;9.212;2024-01-07T03:57:45;23.70;;;14.60;;
70169;SDS011;57543;45.442;9.212;2024-01-07T04:00:49;21.73;;;14.50;;
70169;SDS011;57543;45.442;9.212;2024-01-07T04:03:52;23.45;;;15.32;;
70169;SDS011;57543;45.442;9.212;2024-01-07T04:06:56;23.95;;;14.90;;
70169;SDS011;57543;45.442;9.212;2024-01-07T04:09:59;24.38;;;15.45;;
70169;SDS011;57543;45.442;9.212;2024-01-07T04:13:03;26.45;;;16.35;;
70169;SDS011;57543;45.442;9.212;2024-01-07T04:16:15;25.13;;;15.10;;
70169;SDS011;57543;45.442;9.212;2024-01-07T04:19:20;26.30;;;15.85;;
70169;SDS011;57543;45.442;9.212;2024-01-07T04:22:23;27.08;;;17.00;;
70169;SDS011;57543;45.442;9.212;2024-01-07T04:25:26;27.40;;;16.33;;
70169;SDS011;57543;45.442;9.212;2024-01-07T04:28:30;26.20;;;16.55;;
70169;SDS011;57543;45.442;9.212;2024-01-07T04:31:33;25.20;;;15.13;;
70169;SDS011;57543;45.442;9.212;2024-01-07T04:34:36;24.00;;;15.38;;
70169;SDS011;57543;45.442;9.212;2024-01-07T04:37:40;25.17;;;15.88;;
70169;SDS011;57543;45.442;9.212;2024-01-07T04:40:45;25.17;;;15.70;;
70169;SDS011;57543;45.442;9.212;2024-01-07T04:43:49;26.83;;;16.25;;
70169;SDS011;57543;45.442;9.212;2024-01-07T04:46:53;26.97;;;16.70;;
70169;SDS011;57543;45.442;9.212;2024-01-07T04:49:57;24.30;;;15.25;;
70169;SDS011;57543;45.442;9.212;2024-01-07T04:53:01;26.67;;;15.88;;
70169;SDS011;57543;45.442;9.212;2024-01-07T04:56:04;26.13;;;16.27;;
70169;SDS011;57543;45.442;9.212;2024-01-07T04:59:08;24.55;;;15.00;;
70169;SDS011;57543;45.442;9.212;2024-01-07T05:02:11;26.50;;;15.63;;
70169;SDS011;57543;45.442;9.212;2024-01-07T05:05:15;23.58;;;14.73;;
70169;SDS011;57543;45.442;9.212;2024-01-07T05:08:19;25.20;;;15.75;;
70169;SDS011;57543;45.442;9.212;2024-01-07T05:11:22;28.85;;;17.13;;
70169;SDS011;57543;45.442;9.212;2024-01-07T05:14:26;27.90;;;16.45;;
70169;SDS011;57543;45.442;9.212;2024-01-07T05:17:30;29.27;;;16.67;;
70169;SDS011;57543;45.442;9.212;2024-01-07T05:20:33;27.15;;;16.25;;
70169;SDS011;57543;45.442;9.212;2024-01-07T05:23:36;28.75;;;16.60;;
70169;SDS011;57543;45.442;9.212;2024-01-07T05:26:43;29.05;;;17.08;;
70169;SDS011;57543;45.442;9.212;2024-01-07T05:29:47;26.80;;;15.70;;
70169;SDS011;57543;45.442;9.212;2024-01-07T05:32:51;29.70;;;16.13;;
70169;SDS011;57543;45.442;9.212;2024-01-07T05:35:54;25.83;;;16.15;;
70169;SDS011;57543;45.442;9.212;2024-01-07T05:38:58;27.33;;;16.35;;
70169;SDS011;57543;45.442;9.212;2024-01-07T05:42:02;25.25;;;15.50;;
70169;SDS011;57543;45.442;9.212;2024-01-07T05:45:06;27.80;;;16.63;;
70169;SDS011;57543;45.442;9.212;2024-01-07T05:48:10;26.73;;;16.27;;
70169;SDS011;57543;45.442;9.212;2024-01-07T05:51:14;27.27;;;16.58;;
70169;SDS011;57543;45.442;9.212;2024-01-07T05:54:18;28.02;;;17.30;;
70169;SDS011;57543;45.442;9.212;2024-01-07T05:57:22;26.92;;;17.17;;
70169;SDS011;57543;45.442;9.212;2024-01-07T06:00:25;30.42;;;17.35;;
70169;SDS011;57543;45.442;9.212;2024-01-07T06:03:29;33.50;;;18.97;;
70169;SDS011;57543;45.442;9.212;2024-01-07T06:06:32;29.25;;;17.23;;
70169;SDS011;57543;45.442;9.212;2024-01-07T06:09:36;32.05;;;17.55;;
70169;SDS011;57543;45.442;9.212;2024-01-07T06:12:40;26.52;;;16.20;;
70169;SDS011;57543;45.442;9.212;2024-01-07T06:15:44;27.25;;;16.40;;
70169;SDS011;57543;45.442;9.212;2024-01-07T06:18:48;26.17;;;15.33;;
70169;SDS011;57543;45.442;9.212;2024-01-07T06:21:52;25.10;;;14.80;;
70169;SDS011;57543;45.442;9.212;2024-01-07T06:24:55;27.90;;;16.13;;
70169;SDS011;57543;45.442;9.212;2024-01-07T06:27:58;25.73;;;15.73;;
70169;SDS011;57543;45.442;9.212;2024-01-07T06:31:05;24.70;;;14.98;;
70169;SDS011;57543;45.442;9.212;2024-01-07T06:34:09;25.10;;;15.03;;
70169;SDS011;57543;45.442;9.212;2024-01-07T06:37:16;24.13;;;14.77;;
70169;SDS011;57543;45.442;9.212;2024-01-07T06:40:19;24.27;;;14.95;;
70169;SDS011;57543;45.442;9.212;2024-01-07T06:43:23;25.95;;;15.32;;
70169;SDS011;57543;45.442;9.212;2024-01-07T06:46:26;22.50;;;14.52;;
70169;SDS011;57543;45.442;9.212;2024-01-07T06:49:30;20.83;;;13.90;;
70169;SDS011;57543;45.442;9.212;2024-01-07T06:52:34;20.90;;;12.98;;
70169;SDS011;57543;45.442;9.212;2024-01-07T06:55:38;21.17;;;14.38;;
70169;SDS011;57543;45.442;9.212;2024-01-07T06:58:43;23.48;;;13.82;;
70169;SDS011;57543;45.442;9.212;2024-01-07T07:01:46;21.80;;;13.73;;
70169;SDS011;57543;45.442;9.212;2024-01-07T07:04:50;22.63;;;13.87;;
70169;SDS011;57543;45.442;9.212;2024-01-07T07:07:54;21.95;;;13.57;;
70169;SDS011;57543;45.442;9.212;2024-01-07T07:10:57;23.20;;;13.90;;
70169;SDS011;57543;45.442;9.212;2024-01-07T07:14:00;20.63;;;13.55;;
70169;SDS011;57543;45.442;9.212;2024-01-07T07:17:04;22.20;;;13.85;;
70169;SDS011;57543;45.442;9.212;2024-01-07T07:20:08;19.77;;;12.50;;
70169;SDS011;57543;45.442;9.212;2024-01-07T07:23:12;21.70;;;13.43;;
70169;SDS011;57543;45.442;9.212;2024-01-07T07:26:16;21.52;;;13.07;;
70169;SDS011;57543;45.442;9.212;2024-01-07T07:29:19;20.45;;;12.57;;
70169;SDS011;57543;45.442;9.212;2024-01-07T07:32:22;21.25;;;12.90;;
70169;SDS011;57543;45.442;9.212;2024-01-07T07:35:26;19.80;;;12.77;;
70169;SDS011;57543;45.442;9.212;2024-01-07T07:38:29;21.48;;;12.80;;
70169;SDS011;57543;45.442;9.212;2024-01-07T07:41:32;19.65;;;12.40;;
70169;SDS011;57543;45.442;9.212;2024-01-07T07:44:36;21.23;;;12.43;;
70169;SDS011;57543;45.442;9.212;2024-01-07T07:47:40;20.65;;;12.82;;
70169;SDS011;57543;45.442;9.212;2024-01-07T07:50:48;20.57;;;12.47;;
70169;SDS011;57543;45.442;9.212;2024-01-07T07:53:52;20.88;;;12.73;;
70169;SDS011;57543;45.442;9.212;2024-01-07T07:56:56;17.25;;;11.60;;
70169;SDS011;57543;45.442;9.212;2024-01-07T08:00:00;16.77;;;10.57;;
70169;SDS011;57543;45.442;9.212;2024-01-07T08:03:04;17.17;;;10.57;;
70169;SDS011;57543;45.442;9.212;2024-01-07T08:06:08;14.77;;;10.13;;
70169;SDS011;57543;45.442;9.212;2024-01-07T08:09:11;15.88;;;9.10;;
70169;SDS011;57543;45.442;9.212;2024-01-07T08:12:15;13.60;;;8.57;;
70169;SDS011;57543;45.442;9.212;2024-01-07T08:15:18;13.02;;;8.43;;
70169;SDS011;57543;45.442;9.212;2024-01-07T08:18:22;12.80;;;8.60;;
70169;SDS011;57543;45.442;9.212;2024-01-07T08:21:25;12.70;;;8.00;;
70169;SDS011;57543;45.442;9.212;2024-01-07T08:24:30;14.93;;;8.05;;
70169;SDS011;57543;45.442;9.212;2024-01-07T08:27:34;12.80;;;7.65;;
70169;SDS011;57543;45.442;9.212;2024-01-07T08:30:38;12.52;;;7.45;;
70169;SDS011;57543;45.442;9.212;2024-01-07T08:33:41;12.20;;;7.90;;
70169;SDS011;57543;45.442;9.212;2024-01-07T08:36:44;13.97;;;8.60;;
70169;SDS011;57543;45.442;9.212;2024-01-07T08:39:50;14.10;;;9.23;;
70169;SDS011;57543;45.442;9.212;2024-01-07T08:42:54;15.75;;;10.05;;
70169;SDS011;57543;45.442;9.212;2024-01-07T08:45:57;14.40;;;9.35;;
70169;SDS011;57543;45.442;9.212;2024-01-07T08:49:01;14.93;;;9.93;;
70169;SDS011;57543;45.442;9.212;2024-01-07T08:52:05;16.27;;;10.70;;
70169;SDS011;57543;45.442;9.212;2024-01-07T08:55:08;15.75;;;10.45;;
70169;SDS011;57543;45.442;9.212;2024-01-07T08:58:13;16.33;;;10.70;;
70169;SDS011;57543;45.442;9.212;2024-01-07T09:01:18;16.00;;;10.52;;
70169;SDS011;57543;45.442;9.212;2024-01-07T09:04:22;15.55;;;10.00;;
70169;SDS011;57543;45.442;9.212;2024-01-07T09:07:26;16.27;;;9.90;;
70169;SDS011;57543;45.442;9.212;2024-01-07T09:10:30;13.95;;;8.80;;
70169;SDS011;57543;45.442;9.212;2024-01-07T09:13:34;16.13;;;9.00;;
70169;SDS011;57543;45.442;9.212;2024-01-07T09:16:37;14.38;;;8.50;;
70169;SDS011;57543;45.442;9.212;2024-01-07T09:19:41;13.80;;;8.70;;
70169;SDS011;57543;45.442;9.212;2024-01-07T09:22:45;12.00;;;8.60;;
70169;SDS011;57543;45.442;9.212;2024-01-07T09:25:49;19.20;;;8.45;;
70169;SDS011;57543;45.442;9.212;2024-01-07T09:28:52;13.13;;;8.43;;
70169;SDS011;57543;45.442;9.212;2024-01-07T09:31:55;13.10;;;8.30;;
70169;SDS011;57543;45.442;9.212;2024-01-07T09:34:59;13.05;;;8.60;;
70169;SDS011;57543;45.442;9.212;2024-01-07T09:38:03;12.43;;;8.07;;
70169;SDS011;57543;45.442;9.212;2024-01-07T09:41:07;11.95;;;7.93;;
70169;SDS011;57543;45.442;9.212;2024-01-07T09:44:13;12.63;;;7.68;;
70169;SDS011;57543;45.442;9.212;2024-01-07T09:47:17;12.70;;;7.85;;
70169;SDS011;57543;45.442;9.212;2024-01-07T09:50:21;13.90;;;8.20;;
70169;SDS011;57543;45.442;9.212;2024-01-07T09:53:25;13.23;;;7.50;;
70169;SDS011;57543;45.442;9.212;2024-01-07T09:56:42;11.15;;;7.05;;
70169;SDS011;57543;45.442;9.212;2024-01-07T09:59:48;11.63;;;6.70;;
70169;SDS011;57543;45.442;9.212;2024-01-07T10:02:51;11.07;;;7.07;;
70169;SDS011;57543;45.442;9.212;2024-01-07T10:05:55;11.45;;;7.10;;
70169;SDS011;57543;45.442;9.212;2024-01-07T10:08:59;11.47;;;7.50;;
70169;SDS011;57543;45.442;9.212;2024-01-07T10:12:05;12.68;;;7.80;;
70169;SDS011;57543;45.442;9.212;2024-01-07T10:15:08;14.32;;;8.88;;
70169;SDS011;57543;45.442;9.212;2024-01-07T10:18:12;12.50;;;8.05;;
70169;SDS011;57543;45.442;9.212;2024-01-07T10:21:17;15.10;;;9.48;;
70169;SDS011;57543;45.442;9.212;2024-01-07T10:24:21;15.07;;;9.27;;
70169;SDS011;57543;45.442;9.212;2024-01-07T10:27:24;14.27;;;8.82;;
70169;SDS011;57543;45.442;9.212;2024-01-07T10:30:28;16.67;;;10.20;;
70169;SDS011;57543;45.442;9.212;2024-01-07T10:33:32;15.40;;;10.10;;
70169;SDS011;57543;45.442;9.212;2024-01-07T10:36:39;15.10;;;9.75;;
70169;SDS011;57543;45.442;9.212;2024-01-07T10:39:44;12.37;;;7.83;;
70169;SDS011;57543;45.442;9.212;2024-01-07T10:42:47;12.57;;;6.75;;
70169;SDS011;57543;45.442;9.212;2024-01-07T10:46:00;9.85;;;5.68;;
70169;SDS011;57543;45.442;9.212;2024-01-07T10:49:20;9.05;;;5.53;;
70169;SDS011;57543;45.442;9.212;2024-01-07T10:52:27;8.98;;;5.57;;
70169;SDS011;57543;45.442;9.212;2024-01-07T10:55:32;9.23;;;5.83;;
70169;SDS011;57543;45.442;9.212;2024-01-07T10:58:41;9.20;;;6.20;;
70169;SDS011;57543;45.442;9.212;2024-01-07T11:01:46;10.32;;;6.60;;
70169;SDS011;57543;45.442;9.212;2024-01-07T11:07:57;9.95;;;6.30;;
70169;SDS011;57543;45.442;9.212;2024-01-07T11:11:26;10.83;;;6.47;;
70169;SDS011;57543;45.442;9.212;2024-01-07T11:14:35;13.68;;;7.65;;
70169;SDS011;57543;45.442;9.212;2024-01-07T11:17:48;10.75;;;6.22;;
70169;SDS011;57543;45.442;9.212;2024-01-07T11:20:51;13.45;;;7.65;;
70169;SDS011;57543;45.442;9.212;2024-01-07T11:23:56;14.15;;;7.82;;
70169;SDS011;57543;45.442;9.212;2024-01-07T11:27:02;12.07;;;7.60;;
70169;SDS011;57543;45.442;9.212;2024-01-07T11:30:08;12.52;;;7.72;;
70169;SDS011;57543;45.442;9.212;2024-01-07T11:33:22;12.02;;;7.65;;
70169;SDS011;57543;45.442;9.212;2024-01-07T11:36:36;11.02;;;6.97;;
70169;SDS011;57543;45.442;9.212;2024-01-07T11:39:43;11.10;;;7.13;;
70169;SDS011;57543;45.442;9.212;2024-01-07T11:42:50;10.37;;;6.47;;
70169;SDS011;57543;45.442;9.212;2024-01-07T11:45:55;15.07;;;6.15;;
70169;SDS011;57543;45.442;9.212;2024-01-07T11:49:01;10.13;;;6.10;;
70169;SDS011;57543;45.442;9.212;2024-01-07T11:52:08;10.77;;;6.60;;
70169;SDS011;57543;45.442;9.212;2024-01-07T11:55:13;9.25;;;5.78;;
70169;SDS011;57543;45.442;9.212;2024-01-07T11:58:20;11.33;;;6.30;;
70169;SDS011;57543;45.442;9.212;2024-01-07T12:01:24;9.50;;;6.20;;
70169;SDS011;57543;45.442;9.212;2024-01-07T12:04:29;10.77;;;6.07;;
70169;SDS011;57543;45.442;9.212;2024-01-07T12:07:34;10.35;;;6.15;;
70169;SDS011;57543;45.442;9.212;2024-01-07T12:10:40;11.48;;;6.05;;
70169;SDS011;57543;45.442;9.212;2024-01-07T12:13:44;13.30;;;7.60;;
70169;SDS011;57543;45.442;9.212;2024-01-07T12:16:48;10.85;;;6.88;;
70169;SDS011;57543;45.442;9.212;2024-01-07T12:19:51;10.50;;;6.50;;
70169;SDS011;57543;45.442;9.212;2024-01-07T12:22:55;11.05;;;7.25;;
70169;SDS011;57543;45.442;9.212;2024-01-07T12:26:06;12.15;;;7.03;;
70169;SDS011;57543;45.442;9.212;2024-01-07T12:29:13;10.80;;;6.87;;
70169;SDS011;57543;45.442;9.212;2024-01-07T12:32:17;10.77;;;7.40;;
70169;SDS011;57543;45.442;9.212;2024-01-07T12:35:21;10.85;;;7.03;;
70169;SDS011;57543;45.442;9.212;2024-01-07T12:38:24;11.02;;;7.13;;
70169;SDS011;57543;45.442;9.212;2024-01-07T12:41:31;11.82;;;7.43;;
70169;SDS011;57543;45.442;9.212;2024-01-07T12:44:36;10.17;;;6.43;;
70169;SDS011;57543;45.442;9.212;2024-01-07T12:47:43;9.32;;;6.47;;
70169;SDS011;57543;45.442;9.212;2024-01-07T12:50:49;12.02;;;6.60;;
70169;SDS011;57543;45.442;9.212;2024-01-07T12:53:53;9.65;;;6.15;;
70169;SDS011;57543;45.442;9.212;2024-01-07T12:56:59;9.40;;;6.30;;
70169;SDS011;57543;45.442;9.212;2024-01-07T13:00:04;10.87;;;6.43;;
70169;SDS011;57543;45.442;9.212;2024-01-07T13:03:10;9.48;;;6.50;;
70169;SDS011;57543;45.442;9.212;2024-01-07T13:06:20;12.07;;;7.47;;
70169;SDS011;57543;45.442;9.212;2024-01-07T13:09:23;11.20;;;7.00;;
70169;SDS011;57543;45.442;9.212;2024-01-07T13:12:27;13.43;;;7.22;;
70169;SDS011;57543;45.442;9.212;2024-01-07T13:15:34;11.60;;;7.20;;
70169;SDS011;57543;45.442;9.212;2024-01-07T13:18:37;11.43;;;7.00;;
70169;SDS011;57543;45.442;9.212;2024-01-07T13:21:41;12.10;;;7.40;;
70169;SDS011;57543;45.442;9.212;2024-01-07T13:24:45;12.80;;;7.57;;
70169;SDS011;57543;45.442;9.212;2024-01-07T13:27:48;12.05;;;7.50;;
70169;SDS011;57543;45.442;9.212;2024-01-07T13:30:51;12.67;;;7.70;;
70169;SDS011;57543;45.442;9.212;2024-01-07T13:33:56;11.82;;;7.13;;
70169;SDS011;57543;45.442;9.212;2024-01-07T13:36:59;12.45;;;7.30;;
70169;SDS011;57543;45.442;9.212;2024-01-07T13:40:03;10.10;;;6.32;;
70169;SDS011;57543;45.442;9.212;2024-01-07T13:43:07;10.70;;;6.00;;
70169;SDS011;57543;45.442;9.212;2024-01-07T13:46:11;8.83;;;5.70;;
70169;SDS011;57543;45.442;9.212;2024-01-07T13:49:15;7.93;;;5.10;;
70169;SDS011;57543;45.442;9.212;2024-01-07T13:52:19;9.30;;;4.93;;
70169;SDS011;57543;45.442;9.212;2024-01-07T13:55:23;7.90;;;4.40;;
70169;SDS011;57543;45.442;9.212;2024-01-07T13:58:27;7.20;;;4.40;;
70169;SDS011;57543;45.442;9.212;2024-01-07T14:01:30;8.70;;;4.97;;
70169;SDS011;57543;45.442;9.212;2024-01-07T14:04:34;8.02;;;4.85;;
70169;SDS011;57543;45.442;9.212;2024-01-07T14:07:38;7.88;;;4.55;;
70169;SDS011;57543;45.442;9.212;2024-01-07T14:10:42;7.88;;;4.68;;
70169;SDS011;57543;45.442;9.212;2024-01-07T14:13:46;6.88;;;4.30;;
70169;SDS011;57543;45.442;9.212;2024-01-07T14:16:49;8.63;;;4.97;;
70169;SDS011;57543;45.442;9.212;2024-01-07T14:19:53;9.77;;;4.80;;
70169;SDS011;57543;45.442;9.212;2024-01-07T14:22:57;10.43;;;5.40;;
70169;SDS011;57543;45.442;9.212;2024-01-07T14:26:02;9.25;;;5.40;;
70169;SDS011;57543;45.442;9.212;2024-01-07T14:29:06;7.45;;;4.18;;
70169;SDS011;57543;45.442;9.212;2024-01-07T14:32:10;7.00;;;4.13;;
70169;SDS011;57543;45.442;9.212;2024-01-07T14:35:13;7.30;;;4.05;;
70169;SDS011;57543;45.442;9.212;2024-01-07T14:38:17;7.65;;;4.60;;
70169;SDS011;57543;45.442;9.212;2024-01-07T14:41:20;6.88;;;4.20;;
70169;SDS011;57543;45.442;9.212;2024-01-07T14:44:23;6.60;;;4.30;;
70169;SDS011;57543;45.442;9.212;2024-01-07T14:47:27;8.17;;;4.70;;
70169;SDS011;57543;45.442;9.212;2024-01-07T14:50:30;6.72;;;4.10;;
70169;SDS011;57543;45.442;9.212;2024-01-07T14:53:34;7.03;;;4.30;;
70169;SDS011;57543;45.442;9.212;2024-01-07T14:56:37;7.20;;;4.30;;
70169;SDS011;57543;45.442;9.212;2024-01-07T14:59:41;6.32;;;3.97;;
70169;SDS011;57543;45.442;9.212;2024-01-07T15:02:45;7.47;;;4.67;;
70169;SDS011;57543;45.442;9.212;2024-01-07T15:05:48;6.32;;;3.90;;
70169;SDS011;57543;45.442;9.212;2024-01-07T15:08:52;7.55;;;4.63;;
70169;SDS011;57543;45.442;9.212;2024-01-07T15:11:57;7.15;;;4.30;;
70169;SDS011;57543;45.442;9.212;2024-01-07T15:15:02;8.60;;;4.97;;
70169;SDS011;57543;45.442;9.212;2024-01-07T15:18:09;7.43;;;4.80;;
70169;SDS011;57543;45.442;9.212;2024-01-07T15:21:12;8.05;;;4.82;;
70169;SDS011;57543;45.442;9.212;2024-01-07T15:24:16;7.35;;;4.80;;
70169;SDS011;57543;45.442;9.212;2024-01-07T15:27:20;7.57;;;4.50;;
70169;SDS011;57543;45.442;9.212;2024-01-07T15:30:24;8.18;;;4.85;;
70169;SDS011;57543;45.442;9.212;2024-01-07T15:33:27;7.70;;;5.00;;
70169;SDS011;57543;45.442;9.212;2024-01-07T15:36:34;8.80;;;4.90;;
70169;SDS011;57543;45.442;9.212;2024-01-07T15:39:37;9.48;;;5.53;;
70169;SDS011;57543;45.442;9.212;2024-01-07T15:42:43;8.02;;;5.03;;
70169;SDS011;57543;45.442;9.212;2024-01-07T15:45:47;8.35;;;5.30;;
70169;SDS011;57543;45.442;9.212;2024-01-07T15:48:54;8.20;;;5.13;;
70169;SDS011;57543;45.442;9.212;2024-01-07T15:51:57;6.57;;;4.35;;
70169;SDS011;57543;45.442;9.212;2024-01-07T15:55:00;7.95;;;4.85;;
70169;SDS011;57543;45.442;9.212;2024-01-07T15:58:04;10.23;;;5.97;;
70169;SDS011;57543;45.442;9.212;2024-01-07T16:01:10;8.50;;;5.18;;
70169;SDS011;57543;45.442;9.212;2024-01-07T16:04:14;9.03;;;4.97;;
70169;SDS011;57543;45.442;9.212;2024-01-07T16:07:18;9.57;;;5.70;;
70169;SDS011;57543;45.442;9.212;2024-01-07T16:10:21;9.13;;;5.97;;
70169;SDS011;57543;45.442;9.212;2024-01-07T16:13:25;9.05;;;5.72;;
70169;SDS011;57543;45.442;9.212;2024-01-07T16:16:29;10.25;;;6.53;;
70169;SDS011;57543;45.442;9.212;2024-01-07T16:19:32;10.13;;;6.53;;
70169;SDS011;57543;45.442;9.212;2024-01-07T16:22:36;8.98;;;6.05;;
70169;SDS011;57543;45.442;9.212;2024-01-07T16:25:40;10.65;;;6.75;;
70169;SDS011;57543;45.442;9.212;2024-01-07T16:28:46;9.40;;;6.25;;
70169;SDS011;57543;45.442;9.212;2024-01-07T16:31:49;9.50;;;6.25;;
70169;SDS011;57543;45.442;9.212;2024-01-07T16:34:54;10.50;;;6.20;;
70169;SDS011;57543;45.442;9.212;2024-01-07T16:37:57;10.60;;;6.60;;
70169;SDS011;57543;45.442;9.212;2024-01-07T16:41:01;12.48;;;6.88;;
70169;SDS011;57543;45.442;9.212;2024-01-07T16:44:07;11.55;;;6.65;;
70169;SDS011;57543;45.442;9.212;2024-01-07T16:47:12;10.88;;;6.43;;
70169;SDS011;57543;45.442;9.212;2024-01-07T16:50:17;10.07;;;6.47;;
70169;SDS011;57543;45.442;9.212;2024-01-07T16:53:23;9.65;;;6.22;;
70169;SDS011;57543;45.442;9.212;2024-01-07T16:56:27;11.65;;;6.95;;
70169;SDS011;57543;45.442;9.212;2024-01-07T16:59:30;12.07;;;7.15;;
70169;SDS011;57543;45.442;9.212;2024-01-07T17:02:34;11.95;;;7.15;;
70169;SDS011;57543;45.442;9.212;2024-01-07T17:05:38;10.37;;;6.70;;
70169;SDS011;57543;45.442;9.212;2024-01-07T17:08:42;11.93;;;7.00;;
70169;SDS011;57543;45.442;9.212;2024-01-07T17:11:46;11.32;;;7.22;;
70169;SDS011;57543;45.442;9.212;2024-01-07T17:14:50;11.65;;;7.03;;
70169;SDS011;57543;45.442;9.212;2024-01-07T17:17:55;11.40;;;6.68;;
70169;SDS011;57543;45.442;9.212;2024-01-07T17:21:01;11.57;;;7.07;;
70169;SDS011;57543;45.442;9.212;2024-01-07T17:24:04;11.40;;;7.00;;
70169;SDS011;57543;45.442;9.212;2024-01-07T17:27:08;11.10;;;7.10;;
70169;SDS011;57543;45.442;9.212;2024-01-07T17:30:12;11.63;;;6.95;;
70169;SDS011;57543;45.442;9.212;2024-01-07T17:33:19;11.88;;;7.63;;
70169;SDS011;57543;45.442;9.212;2024-01-07T17:36:24;14.33;;;7.63;;
70169;SDS011;57543;45.442;9.212;2024-01-07T17:39:27;12.25;;;7.88;;
70169;SDS011;57543;45.442;9.212;2024-01-07T17:42:31;14.07;;;7.25;;
70169;SDS011;57543;45.442;9.212;2024-01-07T17:45:34;12.13;;;7.70;;
70169;SDS011;57543;45.442;9.212;2024-01-07T17:48:38;12.57;;;8.15;;
70169;SDS011;57543;45.442;9.212;2024-01-07T17:51:41;12.47;;;7.77;;
70169;SDS011;57543;45.442;9.212;2024-01-07T17:54:47;12.75;;;7.32;;
70169;SDS011;57543;45.442;9.212;2024-01-07T17:57:50;11.98;;;7.68;;
70169;SDS011;57543;45.442;9.212;2024-01-07T18:00:55;11.57;;;7.22;;
70169;SDS011;57543;45.442;9.212;2024-01-07T18:04:01;14.02;;;8.05;;
70169;SDS011;57543;45.442;9.212;2024-01-07T18:07:05;13.67;;;6.10;;
70169;SDS011;57543;45.442;9.212;2024-01-07T18:10:09;14.43;;;8.65;;
70169;SDS011;57543;45.442;9.212;2024-01-07T18:13:13;15.27;;;8.82;;